Maersk Bulan — 9V7693 — position and weather

sailwx.info

Track history (hours):
 
Tides and Currents Weather Stations Pressure Air Temp Water Temp Dewpoint Dewpoint Depression Visibility Wind Speed Wind Dir Waves Ship Positions

Maersk Bulan

Last reported at 2015-Dec-30 18:12 UTC. Time now 2016-Feb-08 19:02 UTC.
Position N 35°38' W 007°34'.
Warning: this ship's position is 40 days out of date.

Length 223 m; draft 10.9 m.

Type: Ship (hazmat cat A). MMSI: 563455000.

Date/timePositionNaut miles runAvg speedWind from/ knotsBaromVisibWave heightAir tempDewpointWater temp
2015-Dec-30 18:12N 35°38' W 007°34'3010.0
2015-Dec-30 15:10N 35°48' W 006°59'7010.2
2015-Dec-30 08:19N 35°58' W 005°34'6 7.7
2015-Dec-30 07:33N 36°00' W 005°27'9 8.9
2015-Dec-30 06:33N 36°09' W 005°26'1 0.7
2015-Dec-30 05:33N 36°09' W 005°26'0 0.0
2015-Dec-30 04:28N 36°09' W 005°26'0 0.0
2015-Dec-30 03:33N 36°09' W 005°26'0 0.0
2015-Dec-30 02:33N 36°09' W 005°26'0 0.0
2015-Dec-30 01:33N 36°09' W 005°26'0 0.0
2015-Dec-30 00:33N 36°09' W 005°26'0 0.0
2015-Dec-29 23:33N 36°09' W 005°26'0 0.0
2015-Dec-29 22:33N 36°09' W 005°26'0 0.0
2015-Dec-29 21:32N 36°09' W 005°26'0 0.0
2015-Dec-29 20:33N 36°09' W 005°26'0 0.0
2015-Dec-29 19:33N 36°09' W 005°26'0 0.0
2015-Dec-29 18:33N 36°09' W 005°26'0 0.0
2015-Dec-29 17:33N 36°09' W 005°26'0 0.0
2015-Dec-29 16:32N 36°09' W 005°26'0 0.0
2015-Dec-29 15:33N 36°09' W 005°26'0 0.0
2015-Dec-29 14:33N 36°09' W 005°26'0 0.0
2015-Dec-29 13:33N 36°09' W 005°26'0 0.0
2015-Dec-29 12:33N 36°09' W 005°26'0 0.0
2015-Dec-29 11:31N 36°09' W 005°26'0 0.0
2015-Dec-29 10:33N 36°09' W 005°26'0 0.0
2015-Dec-29 09:10N 36°09' W 005°26'0 0.0
2015-Dec-29 08:33N 36°09' W 005°26'0 0.0
2015-Dec-29 07:33N 36°09' W 005°26'0 0.0
2015-Dec-29 06:33N 36°09' W 005°26'0 0.0
2015-Dec-29 02:30N 36°09' W 005°26'0 0.0
2015-Dec-29 01:32N 36°09' W 005°26'0 0.1
2015-Dec-29 00:33N 36°09' W 005°26'2 2.2
2015-Dec-28 23:32N 36°08' W 005°23'7 7.3
2015-Dec-28 22:33N 36°06' W 005°15'12812.6
2015-Dec-28 12:21N 36°23' W 002°38'1012.9
2015-Dec-28 11:33N 36°25' W 002°25'1513.0
2015-Dec-28 10:24N 36°27' W 002°07'11411.5
2015-Dec-28 00:32N 36°40' E 000°14'  
2015-Dec-25 11:33N 36°32' E 014°07'1310.9
2015-Dec-25 10:24N 36°28' E 014°22'910.9
2015-Dec-25 09:33N 36°26' E 014°33'1110.9
2015-Dec-25 08:33N 36°23' E 014°47'1110.9
2015-Dec-25 07:33N 36°20' E 014°60'  
Track history (hours):
 
Tides and Currents Weather Stations Pressure Air Temp Water Temp Dewpoint Dewpoint Depression Visibility Wind Speed Wind Dir Waves Ship Positions

Maersk Bulan

Last reported at 2015-Dec-30 18:12 UTC. Time now 2016-Feb-08 19:02 UTC.
Position N 35°38' W 007°34'.
Warning: this ship's position is 40 days out of date.

Length 223 m; draft 10.9 m.

Type: Ship (hazmat cat A). MMSI: 563455000.

Date/timePositionNaut miles runAvg speedWind from/ knotsBaromVisibWave heightAir tempDewpointWater temp
2015-Dec-30 18:12N 35°38' W 007°34'3010.0
2015-Dec-30 15:10N 35°48' W 006°59'7010.2
2015-Dec-30 08:19N 35°58' W 005°34'6 7.7
2015-Dec-30 07:33N 36°00' W 005°27'9 8.9
2015-Dec-30 06:33N 36°09' W 005°26'1 0.7
2015-Dec-30 05:33N 36°09' W 005°26'0 0.0
2015-Dec-30 04:28N 36°09' W 005°26'0 0.0
2015-Dec-30 03:33N 36°09' W 005°26'0 0.0
2015-Dec-30 02:33N 36°09' W 005°26'0 0.0
2015-Dec-30 01:33N 36°09' W 005°26'0 0.0
2015-Dec-30 00:33N 36°09' W 005°26'0 0.0
2015-Dec-29 23:33N 36°09' W 005°26'0 0.0
2015-Dec-29 22:33N 36°09' W 005°26'0 0.0
2015-Dec-29 21:32N 36°09' W 005°26'0 0.0
2015-Dec-29 20:33N 36°09' W 005°26'0 0.0
2015-Dec-29 19:33N 36°09' W 005°26'0 0.0
2015-Dec-29 18:33N 36°09' W 005°26'0 0.0
2015-Dec-29 17:33N 36°09' W 005°26'0 0.0
2015-Dec-29 16:32N 36°09' W 005°26'0 0.0
2015-Dec-29 15:33N 36°09' W 005°26'0 0.0
2015-Dec-29 14:33N 36°09' W 005°26'0 0.0
2015-Dec-29 13:33N 36°09' W 005°26'0 0.0
2015-Dec-29 12:33N 36°09' W 005°26'0 0.0
2015-Dec-29 11:31N 36°09' W 005°26'0 0.0
2015-Dec-29 10:33N 36°09' W 005°26'0 0.0
2015-Dec-29 09:10N 36°09' W 005°26'0 0.0
2015-Dec-29 08:33N 36°09' W 005°26'0 0.0
2015-Dec-29 07:33N 36°09' W 005°26'0 0.0
2015-Dec-29 06:33N 36°09' W 005°26'0 0.0
2015-Dec-29 02:30N 36°09' W 005°26'0 0.0
2015-Dec-29 01:32N 36°09' W 005°26'0 0.1
2015-Dec-29 00:33N 36°09' W 005°26'2 2.2
2015-Dec-28 23:32N 36°08' W 005°23'7 7.3
2015-Dec-28 22:33N 36°06' W 005°15'12812.6
2015-Dec-28 12:21N 36°23' W 002°38'1012.9
2015-Dec-28 11:33N 36°25' W 002°25'1513.0
2015-Dec-28 10:24N 36°27' W 002°07'11411.5
2015-Dec-28 00:32N 36°40' E 000°14'  
2015-Dec-25 11:33N 36°32' E 014°07'1310.9
2015-Dec-25 10:24N 36°28' E 014°22'910.9
2015-Dec-25 09:33N 36°26' E 014°33'1110.9
2015-Dec-25 08:33N 36°23' E 014°47'1110.9
2015-Dec-25 07:33N 36°20' E 014°60'  

Dump ship's entire track history